createdAt,value
2022-09-11T00:03:42.912Z,15.20
2022-09-11T00:06:27.413Z,15.20
2022-09-11T00:09:01.856Z,15.20
2022-09-11T00:11:36.943Z,15.20
2022-09-11T00:14:06.122Z,15.20
2022-09-11T00:16:36.873Z,15.20
2022-09-11T00:19:17.601Z,15.30
2022-09-11T00:21:46.713Z,15.20
2022-09-11T00:24:13.994Z,15.30
2022-09-11T00:26:42.795Z,15.30
2022-09-11T00:29:12.191Z,15.20
2022-09-11T00:31:41.779Z,15.30
2022-09-11T00:34:09.814Z,15.30
2022-09-11T00:36:41.545Z,15.20
2022-09-11T00:39:11.712Z,15.20
2022-09-11T00:41:45.024Z,15.20
2022-09-11T00:44:25.571Z,15.20
2022-09-11T00:46:56.131Z,15.20
2022-09-11T00:49:42.969Z,15.20
2022-09-11T00:52:18.429Z,15.10
2022-09-11T00:55:01.482Z,15.10
2022-09-11T00:57:33.452Z,15.10
2022-09-11T01:00:05.063Z,15.10
2022-09-11T01:02:36.918Z,15.10
2022-09-11T01:05:06.219Z,15.00
2022-09-11T01:07:37.679Z,15.10
2022-09-11T01:10:07.847Z,15.00
2022-09-11T01:12:50.993Z,15.00
2022-09-11T01:15:55.046Z,15.00
2022-09-11T01:19:14.007Z,15.00
2022-09-11T01:21:41.346Z,14.90
2022-09-11T01:24:45.069Z,14.90
2022-09-11T01:27:32.587Z,14.90
2022-09-11T01:30:23.182Z,14.80
2022-09-11T01:32:59.419Z,14.80
2022-09-11T01:35:44.488Z,14.80
2022-09-11T01:38:26.439Z,14.70
2022-09-11T01:41:14.943Z,14.70
2022-09-11T01:43:57.149Z,14.70
2022-09-11T01:46:45.616Z,14.60
2022-09-11T01:49:34.558Z,14.60
2022-09-11T01:52:10.743Z,14.60
2022-09-11T01:54:51.485Z,14.50
2022-09-11T01:57:45.849Z,14.50
2022-09-11T02:00:15.061Z,14.40
2022-09-11T02:03:11.137Z,14.40
2022-09-11T02:05:53.016Z,14.40
2022-09-11T02:08:34.644Z,14.30
2022-09-11T02:11:09.337Z,14.30
2022-09-11T02:13:45.847Z,14.30
2022-09-11T02:16:38.400Z,14.30
2022-09-11T02:19:09.567Z,14.20
2022-09-11T02:21:42.001Z,14.20
2022-09-11T02:24:11.067Z,14.20
2022-09-11T02:26:45.029Z,14.10
2022-09-11T02:29:15.504Z,14.10
2022-09-11T02:31:43.912Z,14.00
2022-09-11T02:34:15.684Z,14.00
2022-09-11T02:37:06.191Z,14.00
2022-09-11T02:39:59.442Z,14.00
2022-09-11T02:42:36.951Z,14.00
2022-09-11T02:45:54.598Z,14.00
2022-09-11T02:48:53.970Z,13.90
2022-09-11T02:51:29.269Z,13.90
2022-09-11T02:54:25.370Z,13.90
2022-09-11T02:57:22.859Z,13.90
2022-09-11T03:00:03.025Z,13.90
2022-09-11T03:02:39.759Z,13.80
2022-09-11T03:05:09.206Z,13.80
2022-09-11T03:07:36.634Z,13.80
2022-09-11T03:10:04.909Z,13.80
2022-09-11T03:12:34.312Z,13.80
2022-09-11T03:15:03.311Z,13.80
2022-09-11T03:17:31.753Z,13.80
2022-09-11T03:19:59.619Z,13.80
2022-09-11T03:22:27.726Z,13.80
2022-09-11T03:24:55.706Z,13.90
2022-09-11T03:27:25.269Z,13.90
2022-09-11T03:29:54.058Z,13.90
2022-09-11T03:32:23.798Z,13.90
2022-09-11T03:34:51.912Z,14.00
2022-09-11T03:37:21.645Z,14.00
2022-09-11T03:39:49.330Z,14.00
2022-09-11T03:42:18.160Z,14.00
2022-09-11T03:44:50.342Z,14.00
2022-09-11T03:47:17.654Z,14.00
2022-09-11T03:49:45.399Z,14.00
2022-09-11T03:52:12.706Z,14.00
2022-09-11T03:54:41.088Z,14.00
2022-09-11T03:57:12.265Z,14.00
2022-09-11T03:59:40.398Z,14.00
2022-09-11T04:05:32.558Z,14.10
2022-09-11T04:08:06.603Z,14.10
2022-09-11T04:10:38.538Z,14.10
2022-09-11T04:13:08.340Z,14.10
2022-09-11T04:15:38.263Z,14.10
2022-09-11T04:18:12.101Z,14.10
2022-09-11T04:20:41.231Z,14.20
2022-09-11T04:23:09.307Z,14.10
2022-09-11T04:25:37.113Z,14.10
2022-09-11T04:28:07.723Z,14.20
2022-09-11T04:30:40.196Z,14.20
2022-09-11T04:33:10.055Z,14.20
2022-09-11T04:35:41.555Z,14.20
2022-09-11T04:38:08.965Z,14.30
2022-09-11T04:40:38.539Z,14.30
2022-09-11T04:43:07.013Z,14.30
2022-09-11T04:45:35.561Z,14.30
2022-09-11T04:48:08.651Z,14.30
2022-09-11T04:50:36.424Z,14.40
2022-09-11T04:53:19.810Z,14.40
2022-09-11T04:55:51.242Z,14.40
2022-09-11T04:58:19.105Z,14.50
2022-09-11T05:00:48.420Z,14.50
2022-09-11T05:03:15.963Z,14.50
2022-09-11T05:05:43.999Z,14.50
2022-09-11T05:08:11.986Z,14.50
2022-09-11T05:10:39.881Z,14.50
2022-09-11T05:13:07.805Z,14.60
2022-09-11T05:15:35.395Z,14.60
2022-09-11T05:18:04.558Z,14.60
2022-09-11T05:20:35.721Z,14.70
2022-09-11T05:23:06.184Z,14.70
2022-09-11T05:25:34.011Z,14.70
2022-09-11T05:28:06.520Z,14.70
2022-09-11T05:30:34.257Z,14.80
2022-09-11T05:33:05.093Z,14.80
2022-09-11T05:35:34.072Z,14.80
2022-09-11T05:38:03.481Z,14.90
2022-09-11T05:40:31.559Z,14.90
2022-09-11T05:43:15.401Z,14.90
2022-09-11T05:45:46.164Z,15.00
2022-09-11T05:48:16.868Z,14.90
2022-09-11T05:50:56.257Z,15.00
2022-09-11T05:53:32.680Z,15.00
2022-09-11T05:56:16.178Z,15.00
2022-09-11T05:58:49.607Z,15.10
2022-09-11T06:01:22.885Z,15.00
2022-09-11T06:04:12.766Z,15.00
2022-09-11T06:06:48.847Z,15.00
2022-09-11T06:09:17.968Z,15.00
2022-09-11T06:11:46.429Z,15.00
2022-09-11T06:14:14.204Z,15.10
2022-09-11T06:16:44.178Z,15.10
2022-09-11T06:19:15.483Z,15.10
2022-09-11T06:21:49.285Z,15.20
2022-09-11T06:24:33.081Z,15.20
2022-09-11T06:27:01.712Z,15.20
2022-09-11T06:29:32.819Z,15.30
2022-09-11T06:32:04.577Z,15.30
2022-09-11T06:34:35.903Z,15.30
2022-09-11T06:37:08.922Z,15.40
2022-09-11T06:39:36.480Z,15.40
2022-09-11T06:42:04.057Z,15.50
2022-09-11T06:44:36.930Z,15.50
2022-09-11T06:47:07.026Z,15.60
2022-09-11T06:49:36.622Z,15.50
2022-09-11T06:52:37.429Z,15.60
2022-09-11T06:55:40.828Z,15.60
2022-09-11T06:58:16.005Z,15.70
2022-09-11T07:00:43.915Z,15.70
2022-09-11T07:03:12.701Z,15.80
2022-09-11T07:05:48.525Z,15.70
2022-09-11T07:08:16.253Z,15.70
2022-09-11T07:10:46.421Z,15.80
2022-09-11T07:13:13.983Z,15.80
2022-09-11T07:15:43.090Z,15.90
2022-09-11T07:18:11.618Z,15.90
2022-09-11T07:20:40.511Z,15.90
2022-09-11T07:23:13.675Z,16.00
2022-09-11T07:25:41.498Z,16.10
2022-09-11T07:28:12.480Z,16.10
2022-09-11T07:30:43.831Z,16.20
2022-09-11T07:33:11.635Z,16.20
2022-09-11T07:35:39.221Z,16.20
2022-09-11T07:38:07.040Z,16.20
2022-09-11T07:40:38.124Z,16.20
2022-09-11T07:43:06.402Z,16.30
2022-09-11T07:45:34.368Z,16.30
2022-09-11T07:48:07.005Z,16.30
2022-09-11T07:50:36.486Z,16.30
2022-09-11T07:53:06.297Z,16.40
2022-09-11T07:55:35.163Z,16.50
2022-09-11T07:58:03.642Z,16.50
2022-09-11T08:00:37.258Z,16.60
2022-09-11T08:06:21.880Z,16.70
2022-09-11T08:08:58.881Z,16.70
2022-09-11T08:11:27.679Z,16.70
2022-09-11T08:13:56.149Z,16.70
2022-09-11T08:16:28.116Z,16.80
2022-09-11T08:19:08.128Z,16.80
2022-09-11T08:21:36.398Z,16.90
2022-09-11T08:24:05.532Z,17.00
2022-09-11T08:26:37.018Z,17.00
2022-09-11T08:29:05.730Z,17.00
2022-09-11T08:31:38.240Z,17.10
2022-09-11T08:34:10.823Z,17.20
2022-09-11T08:36:39.596Z,17.30
2022-09-11T08:39:09.878Z,17.20
2022-09-11T08:42:05.947Z,17.10
2022-09-11T08:44:55.648Z,17.20
2022-09-11T08:47:37.836Z,17.20
2022-09-11T08:50:16.134Z,17.30
2022-09-11T08:52:46.453Z,17.30
2022-09-11T08:55:24.364Z,17.40
2022-09-11T08:58:10.235Z,17.50
2022-09-11T09:00:44.673Z,17.40
2022-09-11T09:03:50.251Z,17.50
2022-09-11T09:06:44.996Z,17.50
2022-09-11T09:09:36.816Z,17.50
2022-09-11T09:12:28.245Z,17.50
2022-09-11T09:14:56.614Z,17.60
2022-09-11T09:17:33.177Z,17.60
2022-09-11T09:20:17.161Z,17.70
2022-09-11T09:22:52.077Z,17.80
2022-09-11T09:25:26.796Z,17.80
2022-09-11T09:28:03.877Z,18.00
2022-09-11T09:30:44.188Z,18.10
2022-09-11T09:33:23.032Z,18.20
2022-09-11T09:35:51.566Z,18.40
2022-09-11T09:38:29.709Z,18.70
2022-09-11T09:41:10.914Z,18.90
2022-09-11T09:44:09.037Z,18.90
2022-09-11T09:46:43.993Z,18.90
2022-09-11T09:49:39.308Z,19.00
2022-09-11T09:52:31.312Z,19.00
2022-09-11T09:55:05.977Z,19.20
2022-09-11T09:57:39.916Z,19.40
2022-09-11T10:00:10.521Z,19.60
2022-09-11T10:02:57.603Z,19.90
2022-09-11T10:05:41.904Z,20.20
2022-09-11T10:08:34.307Z,20.30
2022-09-11T10:11:09.395Z,20.40
2022-09-11T10:13:43.928Z,20.60
2022-09-11T10:16:28.357Z,20.70
2022-09-11T10:18:57.631Z,21.10
2022-09-11T10:21:38.745Z,21.40
2022-09-11T10:24:18.985Z,21.70
2022-09-11T10:26:56.725Z,21.80
2022-09-11T10:29:36.414Z,21.90
2022-09-11T10:32:18.105Z,21.90
2022-09-11T10:34:51.381Z,22.00
2022-09-11T10:37:39.259Z,22.10
2022-09-11T10:40:23.436Z,22.10
2022-09-11T10:42:54.447Z,22.00
2022-09-11T10:45:24.037Z,22.00
2022-09-11T10:47:51.506Z,22.00
2022-09-11T10:50:26.984Z,22.10
2022-09-11T10:53:15.756Z,22.10
2022-09-11T10:55:59.004Z,22.30
2022-09-11T10:58:39.058Z,22.60
2022-09-11T11:01:07.470Z,22.80
2022-09-11T11:03:36.774Z,22.90
2022-09-11T11:06:54.130Z,23.20
2022-09-11T11:09:44.628Z,23.30
2022-09-11T11:12:33.991Z,23.20
2022-09-11T11:15:30.290Z,23.30
2022-09-11T11:18:14.245Z,23.40
2022-09-11T11:20:57.221Z,23.60
2022-09-11T11:23:39.338Z,23.90
2022-09-11T11:26:15.001Z,24.10
2022-09-11T11:29:05.425Z,24.00
2022-09-11T11:31:44.225Z,24.00
2022-09-11T11:34:49.910Z,24.20
2022-09-11T11:37:28.538Z,24.50
2022-09-11T11:40:05.162Z,24.90
2022-09-11T11:42:53.970Z,25.10
2022-09-11T11:45:28.017Z,25.40
2022-09-11T11:47:56.783Z,25.80
2022-09-11T11:50:44.030Z,26.10
2022-09-11T11:53:29.295Z,26.40
2022-09-11T11:56:18.241Z,26.60
2022-09-11T11:59:11.526Z,26.80
2022-09-11T12:02:04.888Z,26.80
2022-09-11T12:04:56.365Z,27.10
2022-09-11T12:10:36.625Z,27.00
2022-09-11T12:13:07.837Z,27.10
2022-09-11T12:15:57.524Z,27.30
2022-09-11T12:18:27.126Z,27.40
2022-09-11T12:21:23.949Z,27.60
2022-09-11T12:23:58.313Z,27.90
2022-09-11T12:26:27.158Z,27.80
2022-09-11T12:29:44.098Z,27.40
2022-09-11T12:32:53.692Z,27.20
2022-09-11T12:35:50.456Z,27.10
2022-09-11T12:38:41.298Z,27.10
2022-09-11T12:41:31.264Z,27.00
2022-09-11T12:43:58.778Z,27.20
2022-09-11T12:46:29.696Z,27.30
2022-09-11T12:49:23.426Z,27.40
2022-09-11T12:51:56.750Z,27.60
2022-09-11T12:54:34.417Z,27.90
2022-09-11T12:57:07.873Z,27.90
2022-09-11T12:59:50.174Z,27.70
2022-09-11T13:02:57.427Z,27.70
2022-09-11T13:05:43.056Z,27.50
2022-09-11T13:08:24.222Z,27.50
2022-09-11T13:10:52.141Z,27.30
2022-09-11T13:13:38.070Z,27.40
2022-09-11T13:16:25.616Z,27.60
2022-09-11T13:19:19.603Z,27.70
2022-09-11T13:21:50.029Z,27.50
2022-09-11T13:24:31.609Z,27.70
2022-09-11T13:27:03.466Z,27.80
2022-09-11T13:29:36.845Z,28.00
2022-09-11T13:32:11.810Z,28.30
2022-09-11T13:34:43.525Z,28.30
2022-09-11T13:37:16.600Z,28.10
2022-09-11T13:39:49.986Z,28.30
2022-09-11T13:42:23.571Z,28.40
2022-09-11T13:44:53.388Z,28.10
2022-09-11T13:47:23.472Z,27.90
2022-09-11T13:49:53.559Z,28.00
2022-09-11T13:52:23.380Z,28.00
2022-09-11T13:54:53.488Z,28.00
2022-09-11T13:57:36.676Z,27.90
2022-09-11T14:00:04.529Z,27.70
2022-09-11T14:02:41.283Z,27.40
2022-09-11T14:05:15.985Z,27.40
2022-09-11T14:10:44.784Z,27.60
2022-09-11T14:13:33.271Z,27.50
2022-09-11T14:16:16.610Z,27.20
2022-09-11T14:18:49.566Z,26.90
2022-09-11T14:21:26.525Z,26.90
2022-09-11T14:23:58.539Z,26.80
2022-09-11T14:26:47.622Z,26.70
2022-09-11T14:29:36.519Z,26.50
2022-09-11T14:32:40.383Z,26.20
2022-09-11T14:35:12.184Z,25.90
2022-09-11T14:37:51.894Z,25.70
2022-09-11T14:40:20.341Z,25.60
2022-09-11T14:42:48.617Z,25.40
2022-09-11T14:45:26.218Z,25.40
2022-09-11T14:47:53.775Z,25.20
2022-09-11T14:50:22.135Z,25.20
2022-09-11T14:52:50.147Z,25.10
2022-09-11T14:55:19.614Z,25.10
2022-09-11T14:57:48.111Z,24.90
2022-09-11T15:00:18.222Z,24.80
2022-09-11T15:02:47.760Z,24.50
2022-09-11T15:05:25.454Z,24.20
2022-09-11T15:07:57.034Z,23.90
2022-09-11T15:10:26.381Z,23.60
2022-09-11T15:12:55.704Z,23.60
2022-09-11T15:15:23.561Z,23.50
2022-09-11T15:17:50.861Z,23.50
2022-09-11T15:20:24.571Z,23.40
2022-09-11T15:22:52.782Z,23.40
2022-09-11T15:25:24.407Z,23.30
2022-09-11T15:27:53.316Z,23.20
2022-09-11T15:30:21.877Z,23.00
2022-09-11T15:32:49.410Z,22.90
2022-09-11T15:35:20.739Z,22.80
2022-09-11T15:37:49.298Z,22.70
2022-09-11T15:40:17.844Z,22.80
2022-09-11T15:42:50.124Z,22.80
2022-09-11T15:45:19.568Z,22.70
2022-09-11T15:47:47.997Z,22.70
2022-09-11T15:50:20.103Z,22.70
2022-09-11T15:52:48.676Z,22.60
2022-09-11T15:55:15.899Z,22.60
2022-09-11T15:57:43.354Z,22.60
2022-09-11T16:00:11.412Z,22.60
2022-09-11T16:02:43.711Z,22.60
2022-09-11T16:05:11.601Z,22.50
2022-09-11T16:07:39.860Z,22.50
2022-09-11T16:10:08.612Z,22.50
2022-09-11T16:12:36.673Z,22.50
2022-09-11T16:15:05.288Z,22.40
2022-09-11T16:17:33.906Z,22.40
2022-09-11T16:20:02.947Z,22.30
2022-09-11T16:22:33.162Z,22.20
2022-09-11T16:25:01.576Z,22.10
2022-09-11T16:27:29.724Z,22.10
2022-09-11T16:32:46.448Z,22.00
2022-09-11T16:35:14.527Z,22.00
2022-09-11T16:37:42.033Z,21.90
2022-09-11T16:40:11.532Z,21.90
2022-09-11T16:42:39.509Z,21.80
2022-09-11T16:45:07.368Z,21.80
2022-09-11T16:47:37.303Z,21.70
2022-09-11T16:50:07.290Z,21.60
2022-09-11T16:52:39.581Z,21.60
2022-09-11T16:55:09.811Z,21.60
2022-09-11T16:57:39.035Z,21.50
2022-09-11T17:00:09.359Z,21.50
2022-09-11T17:02:41.845Z,21.50
2022-09-11T17:05:10.013Z,21.40
2022-09-11T17:07:37.774Z,21.30
2022-09-11T17:10:05.662Z,21.30
2022-09-11T17:12:33.598Z,21.20
2022-09-11T17:15:01.730Z,21.20
2022-09-11T17:17:29.281Z,21.10
2022-09-11T17:20:10.175Z,21.00
2022-09-11T17:22:38.168Z,21.00
2022-09-11T17:25:07.940Z,20.90
2022-09-11T17:27:38.904Z,20.90
2022-09-11T17:30:08.918Z,20.80
2022-09-11T17:32:37.673Z,20.70
2022-09-11T17:35:08.068Z,20.60
2022-09-11T17:37:35.149Z,20.50
2022-09-11T17:40:05.895Z,20.40
2022-09-11T17:42:34.725Z,20.40
2022-09-11T17:45:04.584Z,20.30
2022-09-11T17:47:33.868Z,20.20
2022-09-11T17:50:04.756Z,20.10
2022-09-11T17:52:37.305Z,20.00
2022-09-11T17:55:05.923Z,19.90
2022-09-11T17:57:38.810Z,19.80
2022-09-11T18:00:07.340Z,19.70
2022-09-11T18:02:42.673Z,19.70
2022-09-11T18:05:10.162Z,19.60
2022-09-11T18:07:37.755Z,19.50
2022-09-11T18:10:06.431Z,19.40
2022-09-11T18:12:35.575Z,19.30
2022-09-11T18:15:06.671Z,19.20
2022-09-11T18:17:34.793Z,19.10
2022-09-11T18:20:09.191Z,19.10
2022-09-11T18:22:39.915Z,19.00
2022-09-11T18:25:09.686Z,18.90
2022-09-11T18:27:39.946Z,18.80
2022-09-11T18:30:09.774Z,18.80
2022-09-11T18:32:39.910Z,18.70
2022-09-11T18:35:08.192Z,18.60
2022-09-11T18:37:35.842Z,18.50
2022-09-11T18:40:05.284Z,18.50
2022-09-11T18:42:36.601Z,18.50
2022-09-11T18:45:05.774Z,18.30
2022-09-11T18:47:33.300Z,18.30
2022-09-11T18:50:02.703Z,18.20
2022-09-11T18:52:33.127Z,18.10
2022-09-11T18:55:05.453Z,18.00
2022-09-11T18:57:40.770Z,17.90
2022-09-11T19:00:14.614Z,17.90
2022-09-11T19:02:42.065Z,17.80
2022-09-11T19:05:09.631Z,17.70
2022-09-11T19:07:36.827Z,17.70
2022-09-11T19:10:04.812Z,17.60
2022-09-11T19:12:34.527Z,17.60
2022-09-11T19:15:05.682Z,17.50
2022-09-11T19:17:34.128Z,17.40
2022-09-11T19:20:04.231Z,17.40
2022-09-11T19:22:35.415Z,17.30
2022-09-11T19:25:03.491Z,17.20
2022-09-11T19:27:32.684Z,17.20
2022-09-11T19:30:01.903Z,17.10
2022-09-11T19:32:29.270Z,17.10
2022-09-11T19:35:00.196Z,17.00
2022-09-11T19:37:28.785Z,17.00
2022-09-11T19:40:00.302Z,17.00
2022-09-11T19:42:29.619Z,16.90
2022-09-11T19:44:57.885Z,16.90
2022-09-11T19:47:25.708Z,16.80
2022-09-11T19:49:54.622Z,16.70
2022-09-11T19:52:22.847Z,16.70
2022-09-11T19:54:52.295Z,16.70
2022-09-11T19:57:22.020Z,16.70
2022-09-11T19:59:50.677Z,16.60
2022-09-11T20:02:25.332Z,16.60
2022-09-11T20:04:53.242Z,16.60
2022-09-11T20:07:21.267Z,16.60
2022-09-11T20:10:49.117Z,16.50
2022-09-11T20:13:17.361Z,16.50
2022-09-11T20:15:45.683Z,16.40
2022-09-11T20:18:15.452Z,16.40
2022-09-11T20:20:45.493Z,16.40
2022-09-11T20:23:13.143Z,16.40
2022-09-11T20:25:40.645Z,16.40
2022-09-11T20:28:10.628Z,16.30
2022-09-11T20:30:38.368Z,16.30
2022-09-11T20:33:06.243Z,16.20
2022-09-11T20:35:34.945Z,16.20
2022-09-11T20:38:03.966Z,16.20
2022-09-11T20:40:32.791Z,16.10
2022-09-11T20:43:01.115Z,16.10
2022-09-11T20:45:28.970Z,16.10
2022-09-11T20:47:56.459Z,16.00
2022-09-11T20:50:24.198Z,16.00
2022-09-11T20:52:53.571Z,16.00
2022-09-11T20:55:21.033Z,15.90
2022-09-11T20:57:48.886Z,15.90
2022-09-11T21:00:19.826Z,15.90
2022-09-11T21:02:47.819Z,15.80
2022-09-11T21:05:16.227Z,15.80
2022-09-11T21:07:44.047Z,15.80
2022-09-11T21:10:12.177Z,15.70
2022-09-11T21:12:41.033Z,15.70
2022-09-11T21:15:10.204Z,15.60
2022-09-11T21:17:37.949Z,15.60
2022-09-11T21:20:06.022Z,15.50
2022-09-11T21:22:33.703Z,15.50
2022-09-11T21:25:03.151Z,15.40
2022-09-11T21:27:32.494Z,15.40
2022-09-11T21:30:03.798Z,15.40
2022-09-11T21:32:32.662Z,15.40
2022-09-11T21:34:59.928Z,15.40
2022-09-11T21:37:31.651Z,15.30
2022-09-11T21:39:58.946Z,15.30
2022-09-11T21:42:26.220Z,15.30
2022-09-11T21:44:58.515Z,15.30
2022-09-11T21:47:26.238Z,15.20
2022-09-11T21:49:53.490Z,15.20
2022-09-11T21:52:20.750Z,15.20
2022-09-11T21:54:51.537Z,15.20
2022-09-11T21:57:19.942Z,15.20
2022-09-11T21:59:48.483Z,15.10
2022-09-11T22:02:18.336Z,15.10
2022-09-11T22:04:45.597Z,15.10
2022-09-11T22:07:13.067Z,15.10
2022-09-11T22:09:41.009Z,15.00
2022-09-11T22:12:10.696Z,15.00
2022-09-11T22:14:37.882Z,15.00
2022-09-11T22:17:05.892Z,14.90
2022-09-11T22:19:33.251Z,14.90
2022-09-11T22:22:01.736Z,14.80
2022-09-11T22:24:32.132Z,14.80
2022-09-11T22:26:59.765Z,14.80
2022-09-11T22:29:28.220Z,14.70
2022-09-11T22:31:55.892Z,14.70
2022-09-11T22:34:23.867Z,14.70
2022-09-11T22:36:52.111Z,14.70
2022-09-11T22:39:19.578Z,14.70
2022-09-11T22:41:48.014Z,14.60
2022-09-11T22:44:15.352Z,14.60
2022-09-11T22:46:48.735Z,14.50
2022-09-11T22:49:18.465Z,14.50
2022-09-11T22:51:46.141Z,14.50
2022-09-11T22:54:14.424Z,14.50
2022-09-11T22:56:41.759Z,14.40
2022-09-11T22:59:09.363Z,14.40
2022-09-11T23:01:37.562Z,14.40
2022-09-11T23:04:05.378Z,14.40
2022-09-11T23:06:53.201Z,14.30
2022-09-11T23:09:22.736Z,14.40
2022-09-11T23:11:51.795Z,14.30
2022-09-11T23:14:20.077Z,14.30
2022-09-11T23:16:47.826Z,14.30
2022-09-11T23:19:15.832Z,14.30
2022-09-11T23:21:43.086Z,14.20
2022-09-11T23:24:14.635Z,14.30
2022-09-11T23:26:43.712Z,14.20
2022-09-11T23:29:12.053Z,14.20
2022-09-11T23:31:39.793Z,14.20
2022-09-11T23:34:08.910Z,14.20
2022-09-11T23:36:37.600Z,14.20
2022-09-11T23:39:05.588Z,14.10
2022-09-11T23:41:34.489Z,14.10
2022-09-11T23:44:03.750Z,14.10
2022-09-11T23:46:33.302Z,14.00
2022-09-11T23:49:05.105Z,14.00
2022-09-11T23:51:33.477Z,14.00
2022-09-11T23:54:03.153Z,14.00
2022-09-11T23:56:31.474Z,13.90
2022-09-11T23:58:59.560Z,13.90
